createdAt,value
2023-04-18T00:01:54.432Z,7.53
2023-04-18T00:04:22.327Z,7.47
2023-04-18T00:06:51.726Z,7.25
2023-04-18T00:09:19.573Z,7.93
2023-04-18T00:11:48.746Z,7.07
2023-04-18T00:14:16.538Z,6.23
2023-04-18T00:16:44.499Z,6.30
2023-04-18T00:19:12.555Z,7.13
2023-04-18T00:21:44.930Z,7.38
2023-04-18T00:24:12.955Z,6.50
2023-04-18T00:26:40.934Z,7.03
2023-04-18T00:29:10.535Z,7.10
2023-04-18T00:31:38.692Z,6.40
2023-04-18T00:34:06.500Z,6.53
2023-04-18T00:36:34.242Z,7.03
2023-04-18T00:39:01.968Z,6.70
2023-04-18T00:41:31.288Z,7.68
2023-04-18T00:43:59.183Z,6.82
2023-04-18T00:46:28.335Z,7.28
2023-04-18T00:48:56.495Z,7.65
2023-04-18T00:51:24.561Z,7.90
2023-04-18T00:53:52.674Z,9.13
2023-04-18T00:56:20.631Z,8.32
2023-04-18T00:58:48.478Z,8.07
2023-04-18T01:01:16.234Z,8.15
2023-04-18T01:03:46.313Z,7.50
2023-04-18T01:06:16.238Z,8.70
2023-04-18T01:08:45.456Z,8.10
2023-04-18T01:11:13.269Z,7.78
2023-04-18T01:13:41.098Z,6.38
2023-04-18T01:16:08.904Z,8.47
2023-04-18T01:18:37.269Z,9.02
2023-04-18T01:21:06.701Z,8.32
2023-04-18T01:23:34.519Z,7.65
2023-04-18T01:26:03.610Z,8.48
2023-04-18T01:28:31.325Z,8.50
2023-04-18T01:30:59.086Z,9.23
2023-04-18T01:33:26.865Z,8.63
2023-04-18T01:35:54.613Z,7.32
2023-04-18T01:38:22.573Z,8.43
2023-04-18T01:40:50.823Z,9.57
2023-04-18T01:43:20.078Z,8.90
2023-04-18T01:45:47.814Z,9.93
2023-04-18T01:48:15.558Z,9.68
2023-04-18T01:50:43.322Z,8.65
2023-04-18T17:28:24.983Z,11.35
2023-04-18T17:31:14.510Z,11.63
2023-04-18T17:33:42.896Z,10.65
2023-04-18T17:36:11.342Z,12.20
2023-04-18T17:38:40.579Z,10.43
2023-04-18T17:41:08.507Z,12.70
2023-04-18T17:43:37.784Z,11.97
2023-04-18T17:46:06.070Z,10.55
2023-04-18T17:48:34.115Z,11.32
2023-04-18T17:51:02.256Z,12.07
2023-04-18T17:53:32.153Z,11.45
2023-04-18T17:56:00.666Z,12.27
2023-04-18T17:58:29.288Z,11.70
2023-04-18T18:00:58.594Z,12.43
2023-04-18T18:03:26.703Z,12.82
2023-04-18T18:05:55.760Z,11.65
2023-04-18T18:08:24.268Z,10.17
2023-04-18T18:10:52.130Z,11.45
2023-04-18T18:13:19.987Z,10.30
2023-04-18T18:15:47.854Z,11.38
2023-04-18T18:18:29.704Z,11.70
2023-04-18T18:20:58.170Z,11.87
2023-04-18T18:23:28.719Z,15.18
2023-04-18T18:25:56.574Z,12.70
2023-04-18T18:28:24.448Z,11.85
2023-04-18T18:30:52.516Z,11.32
2023-04-18T18:33:20.466Z,11.17
2023-04-18T18:35:49.858Z,11.88
2023-04-18T18:38:17.813Z,11.98
2023-04-18T18:40:45.732Z,10.77
2023-04-18T18:43:13.769Z,11.38
2023-04-18T18:45:41.680Z,11.23
2023-04-18T18:48:10.076Z,11.05
2023-04-18T18:50:41.816Z,10.57
2023-04-18T18:53:11.188Z,11.43
2023-04-18T18:55:39.324Z,13.00
2023-04-18T18:58:09.701Z,11.57
2023-04-18T19:00:37.654Z,10.88
2023-04-18T19:03:05.702Z,10.27
2023-04-18T19:05:34.809Z,11.48
2023-04-18T19:08:04.890Z,10.68
2023-04-18T19:10:34.375Z,10.23
2023-04-18T19:13:02.370Z,10.82
2023-04-18T19:15:30.724Z,12.02
2023-04-18T19:17:58.794Z,11.05
2023-04-18T19:20:28.804Z,11.38
2023-04-18T19:22:57.313Z,13.43
2023-04-18T19:25:25.984Z,10.90
2023-04-18T19:27:55.310Z,10.50
2023-04-18T19:30:24.407Z,10.57
2023-04-18T19:32:52.469Z,11.43
2023-04-18T19:35:21.136Z,11.87
2023-04-18T19:37:49.071Z,12.38
2023-04-18T19:40:17.477Z,11.68
2023-04-18T19:42:46.466Z,11.23
2023-04-18T19:45:16.117Z,12.00
2023-04-18T19:47:45.016Z,13.47
2023-04-18T19:50:13.018Z,12.75
2023-04-18T19:52:41.172Z,12.40
2023-04-18T19:55:10.102Z,13.38
2023-04-18T19:57:40.018Z,15.10
2023-04-18T20:00:09.998Z,13.70
2023-04-18T20:02:42.627Z,15.07
2023-04-18T20:05:11.418Z,11.55
2023-04-18T20:07:39.705Z,13.32
2023-04-18T20:10:09.496Z,14.35
2023-04-18T20:12:37.591Z,14.33
2023-04-18T20:15:06.794Z,14.13
2023-04-18T20:17:35.237Z,14.30
2023-04-18T20:20:08.180Z,13.20
2023-04-18T20:22:37.120Z,12.55
2023-04-18T20:25:06.787Z,13.03
2023-04-18T20:27:34.936Z,14.07
2023-04-18T20:30:03.002Z,11.20
2023-04-18T20:32:32.153Z,14.57
2023-04-18T20:35:00.265Z,15.73
2023-04-18T20:37:29.694Z,11.80
2023-04-18T20:39:58.700Z,13.05
2023-04-18T20:42:27.444Z,12.10
2023-04-18T20:44:55.404Z,14.05
2023-04-18T20:47:23.526Z,13.38
2023-04-18T20:49:51.485Z,13.73
2023-04-18T20:52:19.326Z,12.82
2023-04-18T20:54:48.555Z,12.65
2023-04-18T20:57:16.450Z,13.25
2023-04-18T20:59:44.303Z,12.40
2023-04-18T21:02:12.287Z,14.63
2023-04-18T21:04:40.674Z,13.52
2023-04-18T21:07:08.729Z,13.60
2023-04-18T21:09:37.384Z,12.75
2023-04-18T21:12:07.120Z,13.43
2023-04-18T21:14:35.038Z,13.20
2023-04-18T21:17:02.940Z,13.38
2023-04-18T21:19:30.807Z,12.38
2023-04-18T21:21:58.742Z,11.25
2023-04-18T21:24:26.569Z,13.82
2023-04-18T21:26:54.492Z,13.03
2023-04-18T21:29:23.876Z,13.90
2023-04-18T21:31:51.816Z,12.98
2023-04-18T21:34:20.105Z,13.95
2023-04-18T21:36:47.975Z,12.43
2023-04-18T21:39:15.940Z,11.30
2023-04-18T21:41:43.929Z,13.82
2023-04-18T21:44:11.995Z,12.85
2023-04-18T21:46:41.186Z,12.40
2023-04-18T21:49:09.068Z,12.55
2023-04-18T21:51:37.114Z,13.27
2023-04-18T21:54:07.127Z,11.35
2023-04-18T21:56:34.961Z,12.32
2023-04-18T21:59:02.788Z,12.70
2023-04-18T22:01:30.727Z,13.48
2023-04-18T22:04:00.300Z,12.30
2023-04-18T22:06:28.313Z,11.05
2023-04-18T22:08:56.274Z,9.18
2023-04-18T22:11:24.428Z,10.05
2023-04-18T22:13:54.157Z,11.00
2023-04-18T22:16:22.830Z,11.53
2023-04-18T22:18:50.859Z,9.63
2023-04-18T22:21:20.061Z,9.82
2023-04-18T22:23:47.921Z,8.20
2023-04-18T22:26:15.842Z,8.82
2023-04-18T22:28:43.733Z,7.97
2023-04-18T22:31:11.605Z,6.93
2023-04-18T22:33:39.466Z,9.20
2023-04-18T22:36:07.555Z,7.70
2023-04-18T22:38:36.705Z,7.47
2023-04-18T22:41:04.615Z,10.10
2023-04-18T22:43:33.620Z,7.32
2023-04-18T22:46:01.602Z,8.68
2023-04-18T22:48:30.005Z,7.82
2023-04-18T22:50:57.969Z,7.47
2023-04-18T22:53:25.844Z,7.30
2023-04-18T22:55:55.004Z,8.77
2023-04-18T22:58:22.837Z,6.75
2023-04-18T23:00:50.796Z,9.35
2023-04-18T23:03:18.860Z,8.38
2023-04-18T23:05:46.892Z,6.40
2023-04-18T23:08:14.784Z,7.93
2023-04-18T23:10:42.620Z,6.28
2023-04-18T23:13:11.832Z,6.40
2023-04-18T23:15:39.750Z,6.40
2023-04-18T23:18:07.688Z,6.70
2023-04-18T23:20:36.342Z,6.68
2023-04-18T23:23:04.359Z,7.63
2023-04-18T23:25:33.502Z,6.57
2023-04-18T23:28:01.404Z,6.85
2023-04-18T23:30:30.804Z,7.03
2023-04-18T23:32:58.738Z,6.07
2023-04-18T23:35:26.715Z,7.32
2023-04-18T23:37:54.514Z,6.68
2023-04-18T23:40:22.930Z,6.53
2023-04-18T23:42:50.788Z,6.50
2023-04-18T23:45:18.914Z,7.60
2023-04-18T23:47:48.187Z,6.03
2023-04-18T23:50:16.125Z,8.13
2023-04-18T23:52:43.964Z,6.32
2023-04-18T23:55:11.807Z,7.13
2023-04-18T23:57:39.630Z,7.05
